Time;durP1;ratioP1;P1;durP2;ratioP2;P2;SDS_P1;SDS_P2;PMS_P1;PMS_P2;Temp;Humidity;BMP_temperature;BMP_pressure;BME280_temperature;BME280_humidity;BME280_pressure;Samples;Min_cycle;Max_cycle;Signal;HPM_P1;HPM_P2
2023/01/31 00:00:33;;;;;;;;;;;;;;;27.21;64.94;101041.38;5078568;27;70177;-38
2023/01/31 00:03:04;;;;;;;;;;;;;;;27.23;64.11;101044.72;5081820;27;66429;-38
2023/01/31 00:05:34;;;;;;;;;;;;;;;27.26;63.91;101044.34;5081417;27;69412;-39
2023/01/31 00:08:05;;;;;;;;;;;;;;;27.29;63.71;101046.66;5058589;28;66337;-39
2023/01/31 00:10:36;;;;;;;;;;;;;;;27.30;63.60;101049.16;5082977;27;70245;-40
2023/01/31 00:13:07;;;;;;;;;;;;;;;27.30;63.67;101054.53;5052250;28;66382;-39
2023/01/31 00:15:37;;;;;;;;;;;;;;;27.33;63.39;101056.00;5089205;27;69463;-39
2023/01/31 00:18:08;;;;;;;;;;;;;;;27.34;63.36;101063.06;5079896;27;65829;-38
2023/01/31 00:20:38;;;;;;;;;;;;;;;27.32;62.85;101055.16;5079760;27;70829;-38
2023/01/31 00:23:10;;;;;;;;;;;;;;;27.34;62.30;101063.06;5077564;27;66535;-38
2023/01/31 00:25:40;;;;;;;;;;;;;;;27.27;61.62;101067.53;5089355;27;70078;-38
2023/01/31 00:28:12;;;;;;;;;;;;;;;27.23;62.02;101067.09;5057571;27;65578;-37
2023/01/31 00:30:42;;;;;;;;;;;;;;;27.22;62.16;101076.22;5087384;27;70622;-39
2023/01/31 00:33:13;;;;;;;;;;;;;;;27.25;62.39;101081.22;5081103;27;66474;-38
2023/01/31 00:35:44;;;;;;;;;;;;;;;27.27;62.29;101083.69;5081206;27;71166;-40
2023/01/31 00:38:14;;;;;;;;;;;;;;;27.28;62.56;101082.69;5064654;27;66537;-39
2023/01/31 00:40:54;;;;;;;;;;;;;;;27.26;62.30;101095.50;5084312;27;70113;-37
2023/01/31 00:43:26;;;;;;;;;;;;;;;27.23;61.39;101090.50;5081778;27;66481;-38
2023/01/31 00:45:56;;;;;;;;;;;;;;;27.14;61.51;101087.91;5051520;28;70080;-39
2023/01/31 00:48:36;;;;;;;;;;;;;;;27.13;61.40;101096.97;5105044;27;44482;-41
2023/01/31 00:51:07;;;;;;;;;;;;;;;27.13;61.47;101096.16;5085131;27;70175;-38
2023/01/31 00:53:38;;;;;;;;;;;;;;;27.15;61.73;101100.34;5093709;27;66459;-39
2023/01/31 00:56:10;;;;;;;;;;;;;;;27.15;61.70;101097.63;5090187;27;69787;-40
2023/01/31 00:58:42;;;;;;;;;;;;;;;27.17;61.93;101092.94;5095205;27;66555;-40
2023/01/31 01:01:15;;;;;;;;;;;;;;;27.20;61.96;101098.97;5093303;27;69101;-44
2023/01/31 01:03:47;;;;;;;;;;;;;;;27.23;61.90;101098.59;5101853;27;66998;-39
2023/01/31 01:06:18;;;;;;;;;;;;;;;27.26;62.03;101103.59;5102240;27;69455;-43
2023/01/31 01:08:49;;;;;;;;;;;;;;;27.29;62.05;101108.59;5093848;27;66563;-38
2023/01/31 01:11:21;;;;;;;;;;;;;;;27.31;62.15;101122.72;5088629;27;69754;-38
2023/01/31 01:13:52;;;;;;;;;;;;;;;27.33;62.24;101112.56;5084200;27;66355;-40
2023/01/31 01:16:24;;;;;;;;;;;;;;;27.35;62.42;101121.28;5090344;27;70608;-39
2023/01/31 01:18:55;;;;;;;;;;;;;;;27.37;62.50;101116.56;5096851;27;66804;-39
2023/01/31 01:21:28;;;;;;;;;;;;;;;27.38;62.46;101113.66;5094196;27;70373;-38
2023/01/31 01:24:01;;;;;;;;;;;;;;;27.38;62.33;101119.03;5086404;27;67194;-38
2023/01/31 01:26:33;;;;;;;;;;;;;;;27.42;62.34;101133.00;5089896;27;70031;-39
2023/01/31 01:29:05;;;;;;;;;;;;;;;27.43;62.57;101126.56;5100037;27;66547;-40
2023/01/31 01:31:36;;;;;;;;;;;;;;;27.46;62.47;101130.75;5095128;27;70231;-39
2023/01/31 01:34:12;;;;;;;;;;;;;;;27.47;62.59;101127.88;5084617;27;65368;-40
2023/01/31 01:36:43;;;;;;;;;;;;;;;27.49;62.57;101131.19;5089908;27;70416;-40
2023/01/31 01:39:16;;;;;;;;;;;;;;;27.50;62.40;101135.56;5089240;27;67469;-39
2023/01/31 01:41:47;;;;;;;;;;;;;;;27.52;62.59;101133.50;5086641;27;71543;-40
2023/01/31 01:44:36;;;;;;;;;;;;;;;27.54;62.50;101127.94;5090499;27;66958;-40
2023/01/31 01:47:13;;;;;;;;;;;;;;;27.56;62.58;101132.09;5074943;27;70272;-38
2023/01/31 01:49:45;;;;;;;;;;;;;;;27.57;62.63;101131.06;5103204;27;65924;-39
2023/01/31 01:52:17;;;;;;;;;;;;;;;27.59;62.73;101136.28;5085141;27;70359;-39
2023/01/31 01:54:50;;;;;;;;;;;;;;;27.60;62.53;101133.38;5081695;27;66414;-40
2023/01/31 01:57:25;;;;;;;;;;;;;;;27.62;62.46;101128.63;5077202;27;69776;-39
2023/01/31 02:00:23;;;;;;;;;;;;;;;27.64;62.19;101133.84;5075020;28;66681;-39
2023/01/31 02:02:56;;;;;;;;;;;;;;;27.65;62.21;101137.38;5064825;28;70407;-39
2023/01/31 02:05:31;;;;;;;;;;;;;;;27.68;62.17;101128.88;5070894;28;66628;-41
2023/01/31 02:08:03;;;;;;;;;;;;;;;27.69;61.84;101131.38;5074888;27;69860;-40
2023/01/31 02:10:36;;;;;;;;;;;;;;;27.71;62.23;101139.28;5070425;28;65721;-39
2023/01/31 02:13:07;;;;;;;;;;;;;;;27.73;62.06;101148.03;5099573;27;70065;-46
2023/01/31 02:15:38;;;;;;;;;;;;;;;27.74;62.16;101133.50;5076388;27;66674;-38
2023/01/31 02:18:09;;;;;;;;;;;;;;;27.77;61.95;101133.13;5079293;27;69481;-41
2023/01/31 02:20:42;;;;;;;;;;;;;;;27.78;62.08;101130.25;5076797;27;66996;-39
2023/01/31 02:23:36;;;;;;;;;;;;;;;27.80;61.93;101138.16;5081808;27;70590;-40
2023/01/31 02:26:27;;;;;;;;;;;;;;;27.82;61.93;101133.41;5064239;27;67325;-39
2023/01/31 02:29:07;;;;;;;;;;;;;;;27.84;62.08;101139.44;5077021;28;69989;-40
2023/01/31 02:31:46;;;;;;;;;;;;;;;27.87;62.09;101138.22;5070943;27;66646;-45
2023/01/31 02:34:35;;;;;;;;;;;;;;;27.87;61.77;101136.34;5073216;27;69792;-39
2023/01/31 02:37:21;;;;;;;;;;;;;;;27.91;61.80;101139.50;5089551;27;65586;-39
2023/01/31 02:39:55;;;;;;;;;;;;;;;27.93;61.59;101138.28;5070658;28;70373;-40
2023/01/31 02:42:34;;;;;;;;;;;;;;;27.94;61.51;101145.31;5075417;27;66764;-49
2023/01/31 02:45:20;;;;;;;;;;;;;;;27.97;61.64;101139.56;5072636;27;69908;-40
2023/01/31 02:47:52;;;;;;;;;;;;;;;27.99;61.51;101132.09;5070781;27;65845;-40
2023/01/31 02:50:48;;;;;;;;;;;;;;;28.01;61.86;101135.44;5087171;27;70279;-39
2023/01/31 02:53:19;;;;;;;;;;;;;;;28.03;61.47;101133.41;5047121;28;66333;-39
2023/01/31 02:59:03;;;;;;;;;;;;;;;28.09;61.82;101133.66;5069335;27;65425;-40
2023/01/31 03:01:36;;;;;;;;;;;;;;;28.11;61.74;101139.66;5073563;27;70162;-38
2023/01/31 03:04:09;;;;;;;;;;;;;;;28.13;61.66;101132.22;5070993;28;66148;-40
2023/01/31 03:06:40;;;;;;;;;;;;;;;28.15;61.44;101127.47;5069916;27;69928;-40
2023/01/31 03:09:27;;;;;;;;;;;;;;;28.17;61.42;101122.72;5094176;27;66767;-40
2023/01/31 03:12:19;;;;;;;;;;;;;;;28.20;61.36;101116.94;5070301;27;69131;-41
2023/01/31 03:15:01;;;;;;;;;;;;;;;28.22;61.54;101120.22;5074340;27;66988;-39
2023/01/31 03:17:40;;;;;;;;;;;;;;;28.25;61.54;101119.84;5045745;28;69124;-40
2023/01/31 03:20:16;;;;;;;;;;;;;;;28.27;61.31;101115.09;5075263;27;67118;-40
2023/01/31 03:23:10;;;;;;;;;;;;;;;28.31;61.62;101112.84;5068866;27;70593;-39
2023/01/31 03:25:41;;;;;;;;;;;;;;;28.34;61.64;101107.06;5059706;27;65550;-39
2023/01/31 03:28:17;;;;;;;;;;;;;;;28.36;61.58;101105.84;5077950;27;69674;-38
2023/01/31 03:30:51;;;;;;;;;;;;;;;28.38;61.52;101103.75;5091518;27;66654;-39
2023/01/31 03:33:30;;;;;;;;;;;;;;;28.40;61.31;101099.00;5071151;27;70026;-39
2023/01/31 03:36:19;;;;;;;;;;;;;;;28.42;61.45;101088.88;5073440;27;66388;-41
2023/01/31 03:39:12;;;;;;;;;;;;;;;28.45;61.98;101088.47;5091674;27;70035;-40
2023/01/31 03:41:52;;;;;;;;;;;;;;;28.48;61.72;101077.28;5071265;27;66287;-39
2023/01/31 03:44:47;;;;;;;;;;;;;;;28.51;62.22;101071.47;5090721;27;69278;-39
2023/01/31 03:47:21;;;;;;;;;;;;;;;28.55;61.81;101071.06;5090691;27;65190;-38
2023/01/31 03:49:53;;;;;;;;;;;;;;;28.57;62.23;101069.03;5091566;27;70304;-38
2023/01/31 03:52:30;;;;;;;;;;;;;;;28.60;61.83;101068.63;5057365;28;66418;-39
2023/01/31 03:55:09;;;;;;;;;;;;;;;28.62;62.50;101064.69;5073896;27;70877;-39
2023/01/31 03:57:41;;;;;;;;;;;;;;;28.65;61.97;101055.34;5073439;28;66920;-40
2023/01/31 04:00:14;;;;;;;;;;;;;;;28.68;62.08;101049.56;5077916;27;72587;-39
2023/01/31 04:02:55;;;;;;;;;;;;;;;28.70;62.24;101047.50;5073207;27;66040;-39
2023/01/31 04:05:30;;;;;;;;;;;;;;;28.73;62.47;101047.09;5064093;27;69674;-38
2023/01/31 04:08:02;;;;;;;;;;;;;;;28.75;62.07;101042.28;5070604;27;66818;-39
2023/01/31 04:10:34;;;;;;;;;;;;;;;28.79;62.11;101029.25;5070305;27;69823;-38
2023/01/31 04:13:05;;;;;;;;;;;;;;;28.82;62.59;101023.44;5076885;27;66176;-39
2023/01/31 04:15:35;;;;;;;;;;;;;;;28.84;62.74;101022.19;5071547;27;70640;-39
2023/01/31 04:18:06;;;;;;;;;;;;;;;28.86;62.66;101020.13;5075788;27;66543;-40
2023/01/31 04:20:37;;;;;;;;;;;;;;;28.89;62.32;101008.94;5078215;27;69195;-40
2023/01/31 04:23:07;;;;;;;;;;;;;;;28.92;62.51;101007.69;5074561;27;66552;-40
2023/01/31 04:25:38;;;;;;;;;;;;;;;28.95;62.49;101008.09;5070648;27;70009;-40
2023/01/31 04:28:09;;;;;;;;;;;;;;;28.98;62.79;101000.66;5071346;28;65200;-41
2023/01/31 04:30:40;;;;;;;;;;;;;;;29.01;62.79;100994.81;5073499;28;71340;-39
2023/01/31 04:33:10;;;;;;;;;;;;;;;29.03;62.68;100990.03;5075302;27;66066;-39
2023/01/31 04:35:41;;;;;;;;;;;;;;;29.05;62.53;100983.41;5077323;27;70704;-38
2023/01/31 04:38:11;;;;;;;;;;;;;;;29.08;61.97;100979.47;5067532;28;66335;-38
2023/01/31 04:40:42;;;;;;;;;;;;;;;29.12;62.48;100980.75;5066781;27;70773;-38
2023/01/31 04:43:13;;;;;;;;;;;;;;;29.13;61.73;100971.59;5069939;27;66090;-39
2023/01/31 04:45:43;;;;;;;;;;;;;;;29.15;61.65;100964.13;5066137;28;70699;-39
2023/01/31 04:48:14;;;;;;;;;;;;;;;29.18;61.50;100952.91;5088678;27;66634;-39
2023/01/31 04:50:45;;;;;;;;;;;;;;;29.19;61.84;100954.56;5090908;27;70264;-39
2023/01/31 04:53:16;;;;;;;;;;;;;;;29.23;61.24;100952.28;5093481;27;66638;-40
2023/01/31 04:55:47;;;;;;;;;;;;;;;29.26;61.02;100949.16;5094540;27;69646;-38
2023/01/31 04:58:17;;;;;;;;;;;;;;;29.28;61.03;100939.81;5093359;27;66808;-39
2023/01/31 05:00:48;;;;;;;;;;;;;;;29.30;61.25;100939.59;5080146;27;71396;-39
2023/01/31 05:03:19;;;;;;;;;;;;;;;29.31;61.14;100936.69;5079978;27;66009;-39
2023/01/31 05:05:50;;;;;;;;;;;;;;;29.34;60.74;100930.88;5091997;27;70366;-39
2023/01/31 05:08:21;;;;;;;;;;;;;;;29.30;59.69;100924.22;5091503;27;66110;-41
2023/01/31 05:11:10;;;;;;;;;;;;;;;29.35;60.30;100920.91;5096494;27;70483;-38
2023/01/31 05:13:41;;;;;;;;;;;;;;;29.38;59.62;100912.38;5086901;27;65894;-40
2023/01/31 05:16:12;;;;;;;;;;;;;;;29.42;59.72;100910.06;5071338;27;69068;-41
2023/01/31 05:18:42;;;;;;;;;;;;;;;29.44;59.81;100905.28;5091157;27;64359;-40
2023/01/31 05:21:13;;;;;;;;;;;;;;;29.42;59.91;100901.97;5093310;27;69826;-39
2023/01/31 05:23:44;;;;;;;;;;;;;;;29.39;59.86;100890.56;5077726;27;66007;-39
2023/01/31 05:26:15;;;;;;;;;;;;;;;29.46;59.18;100889.72;5091450;27;69224;-38
2023/01/31 05:28:45;;;;;;;;;;;;;;;29.48;59.45;100883.06;5092778;27;65317;-40
2023/01/31 05:31:16;;;;;;;;;;;;;;;29.50;58.70;100880.13;5099096;27;69843;-40
2023/01/31 05:33:48;;;;;;;;;;;;;;;29.53;59.77;100879.69;5086381;27;67290;-39
2023/01/31 05:36:18;;;;;;;;;;;;;;;29.54;58.89;100865.97;5069982;27;70498;-39
2023/01/31 05:38:50;;;;;;;;;;;;;;;29.54;59.70;100862.47;5100202;27;65711;-39
2023/01/31 05:41:20;;;;;;;;;;;;;;;29.61;58.56;100855.13;5096830;27;69044;-39
2023/01/31 05:43:51;;;;;;;;;;;;;;;29.68;58.77;100844.34;5087693;27;66448;-40
2023/01/31 05:46:21;;;;;;;;;;;;;;;29.73;58.36;100848.09;5089908;27;69007;-40
2023/01/31 05:48:52;;;;;;;;;;;;;;;29.76;58.03;100841.41;5080838;27;66640;-39
2023/01/31 05:51:23;;;;;;;;;;;;;;;29.77;58.29;100833.09;5079752;27;70805;-40
2023/01/31 05:53:53;;;;;;;;;;;;;;;29.78;57.66;100825.78;5087611;27;66878;-39
2023/01/31 05:56:24;;;;;;;;;;;;;;;29.78;57.59;100821.25;5075546;27;70521;-38
2023/01/31 05:58:55;;;;;;;;;;;;;;;29.80;57.77;100818.31;5073088;27;65940;-39
2023/01/31 06:01:26;;;;;;;;;;;;;;;29.81;57.45;100822.66;5075298;27;69768;-41
2023/01/31 06:03:57;;;;;;;;;;;;;;;29.82;57.37;100817.03;5084804;27;67700;-40
2023/01/31 06:06:28;;;;;;;;;;;;;;;29.83;57.43;100807.06;5084164;27;70575;-40
2023/01/31 06:08:59;;;;;;;;;;;;;;;29.86;57.26;100808.50;5096722;27;67039;-40
2023/01/31 06:11:30;;;;;;;;;;;;;;;29.88;57.22;100795.59;5079331;27;70547;-40
2023/01/31 06:14:01;;;;;;;;;;;;;;;29.91;57.15;100790.59;5067777;27;66236;-41
2023/01/31 06:16:32;;;;;;;;;;;;;;;29.93;57.35;100783.09;5078157;27;70212;-40
2023/01/31 06:19:03;;;;;;;;;;;;;;;29.95;57.65;100785.56;5089506;27;66295;-40
2023/01/31 06:21:34;;;;;;;;;;;;;;;29.98;57.33;100785.16;5098772;27;70826;-41
2023/01/31 06:24:04;;;;;;;;;;;;;;;29.99;56.92;100770.59;5090970;27;65418;-40
2023/01/31 06:26:35;;;;;;;;;;;;;;;30.01;56.88;100769.31;5095906;27;70723;-40
2023/01/31 06:29:05;;;;;;;;;;;;;;;30.02;56.96;100759.31;5092283;27;65854;-39
2023/01/31 06:31:36;;;;;;;;;;;;;;;30.05;56.80;100758.88;5088709;27;70498;-39
2023/01/31 06:34:07;;;;;;;;;;;;;;;30.07;57.26;100756.81;5095450;27;65688;-39
2023/01/31 06:36:38;;;;;;;;;;;;;;;30.08;56.64;100749.50;5098347;27;69608;-41
2023/01/31 06:39:09;;;;;;;;;;;;;;;30.10;56.79;100750.94;5089502;27;66995;-39
2023/01/31 06:41:40;;;;;;;;;;;;;;;30.13;56.82;100739.69;5091922;27;69596;-41
2023/01/31 06:44:11;;;;;;;;;;;;;;;30.18;57.12;100745.28;5099879;27;66870;-40
2023/01/31 06:46:42;;;;;;;;;;;;;;;30.22;56.36;100733.00;5067205;27;71578;-39
2023/01/31 06:49:13;;;;;;;;;;;;;;;30.24;56.81;100724.66;5096531;27;67127;-39
2023/01/31 06:51:44;;;;;;;;;;;;;;;30.25;56.67;100727.13;5091322;27;70543;-40
2023/01/31 06:54:14;;;;;;;;;;;;;;;30.28;56.00;100726.72;5084377;27;66886;-39
2023/01/31 06:56:45;;;;;;;;;;;;;;;30.30;56.23;100723.78;5095980;27;69925;-40
2023/01/31 06:59:15;;;;;;;;;;;;;;;30.32;56.32;100721.69;5087804;27;65607;-40
2023/01/31 07:01:47;;;;;;;;;;;;;;;30.35;56.31;100715.00;5090932;27;69437;-40
2023/01/31 07:04:18;;;;;;;;;;;;;;;30.36;55.71;100713.94;5076214;27;66316;-40
2023/01/31 07:06:49;;;;;;;;;;;;;;;30.40;56.21;100712.47;5087442;27;69829;-39
2023/01/31 07:09:19;;;;;;;;;;;;;;;30.43;56.24;100712.84;5075506;27;64934;-39
2023/01/31 07:11:50;;;;;;;;;;;;;;;30.46;55.80;100706.16;5085325;27;70015;-39
2023/01/31 07:14:21;;;;;;;;;;;;;;;30.49;55.56;100694.91;5089971;27;66217;-39
2023/01/31 07:16:52;;;;;;;;;;;;;;;30.53;55.49;100695.28;5093112;27;69898;-40
2023/01/31 07:19:23;;;;;;;;;;;;;;;30.56;55.79;100690.22;5096555;27;65219;-39
2023/01/31 07:21:54;;;;;;;;;;;;;;;30.61;55.91;100686.88;5100035;27;69412;-40
2023/01/31 07:24:25;;;;;;;;;;;;;;;30.64;55.42;100687.25;5096930;27;66602;-40
2023/01/31 07:26:56;;;;;;;;;;;;;;;30.67;55.13;100692.25;5096088;27;70210;-40
2023/01/31 07:29:26;;;;;;;;;;;;;;;30.71;55.28;100687.19;5091634;27;66400;-40
2023/01/31 07:31:59;;;;;;;;;;;;;;;30.76;55.51;100689.22;5081214;27;69890;-40
2023/01/31 07:34:33;;;;;;;;;;;;;;;30.79;55.49;100683.38;5091691;27;67047;-40
2023/01/31 07:37:03;;;;;;;;;;;;;;;30.83;55.16;100690.84;5069451;27;70137;-41
2023/01/31 07:39:34;;;;;;;;;;;;;;;30.86;54.85;100679.53;5062643;27;66088;-40
2023/01/31 07:42:05;;;;;;;;;;;;;;;30.90;54.65;100685.38;5079074;27;68912;-40
2023/01/31 07:44:36;;;;;;;;;;;;;;;30.93;55.09;100684.91;5067462;27;65520;-39
2023/01/31 07:47:06;;;;;;;;;;;;;;;30.96;54.47;100678.22;5097530;27;69573;-38
2023/01/31 07:49:37;;;;;;;;;;;;;;;31.01;54.52;100668.34;5078546;27;67264;-39
2023/01/31 07:52:07;;;;;;;;;;;;;;;31.06;54.44;100668.47;5106895;27;69837;-39
2023/01/31 07:54:38;;;;;;;;;;;;;;;31.08;54.28;100660.16;5088610;27;65791;-38
2023/01/31 07:57:08;;;;;;;;;;;;;;;31.11;54.27;100663.22;5088986;27;69758;-39
2023/01/31 07:59:39;;;;;;;;;;;;;;;31.16;54.31;100662.53;5079817;27;66463;-40
2023/01/31 08:05:03;;;;;;;;;;;;;;;31.28;54.30;100662.59;5088774;27;66961;-40
2023/01/31 08:07:33;;;;;;;;;;;;;;;31.31;54.01;100654.00;5095352;27;70300;-40
2023/01/31 08:10:04;;;;;;;;;;;;;;;31.36;54.24;100651.47;5096160;27;67195;-39
2023/01/31 08:12:35;;;;;;;;;;;;;;;31.39;54.29;100651.84;5091202;27;70365;-40
2023/01/31 08:15:06;;;;;;;;;;;;;;;31.44;54.48;100648.44;5098850;27;66877;-38
2023/01/31 08:17:37;;;;;;;;;;;;;;;31.48;54.42;100655.09;5094094;27;70217;-40
2023/01/31 08:20:08;;;;;;;;;;;;;;;31.53;54.28;100652.47;5095275;27;65251;-39
2023/01/31 08:22:38;;;;;;;;;;;;;;;31.58;54.75;100649.91;5085711;27;70343;-39
2023/01/31 08:25:09;;;;;;;;;;;;;;;31.63;54.08;100651.94;5093752;27;66824;-39
2023/01/31 08:27:41;;;;;;;;;;;;;;;31.66;54.14;100647.94;5070534;27;70183;-39
2023/01/31 08:30:12;;;;;;;;;;;;;;;31.71;54.59;100653.50;5094844;27;67840;-40
2023/01/31 08:32:43;;;;;;;;;;;;;;;31.73;55.04;100645.94;5095156;27;71590;-40
2023/01/31 08:35:13;;;;;;;;;;;;;;;31.79;55.22;100645.03;5093251;27;65969;-38
2023/01/31 08:37:44;;;;;;;;;;;;;;;31.83;56.00;100649.75;5094353;27;69275;-40
2023/01/31 08:40:15;;;;;;;;;;;;;;;31.87;56.04;100647.38;5089017;27;66160;-39
2023/01/31 08:42:53;;;;;;;;;;;;;;;31.90;55.97;100646.09;5091256;27;69859;-39
2023/01/31 08:45:24;;;;;;;;;;;;;;;31.96;55.83;100640.63;5081247;27;65786;-39
2023/01/31 08:47:55;;;;;;;;;;;;;;;31.99;55.95;100645.56;5095395;27;69307;-39
2023/01/31 08:50:27;;;;;;;;;;;;;;;32.02;56.43;100645.09;5092967;27;66172;-39
2023/01/31 08:53:00;;;;;;;;;;;;;;;32.09;56.36;100649.59;5094515;27;70621;-39
2023/01/31 08:55:31;;;;;;;;;;;;;;;32.10;56.42;100643.94;5094347;27;65418;-39
2023/01/31 08:58:02;;;;;;;;;;;;;;;32.16;56.14;100653.03;5092060;27;70683;-40
2023/01/31 09:00:32;;;;;;;;;;;;;;;32.20;55.72;100654.19;5070404;27;65725;-40
2023/01/31 09:03:03;;;;;;;;;;;;;;;32.23;55.99;100657.28;5090652;27;69181;-39
2023/01/31 09:05:34;;;;;;;;;;;;;;;32.30;55.69;100645.47;5072013;27;65941;-41
2023/01/31 09:08:05;;;;;;;;;;;;;;;32.33;55.82;100655.88;5097624;27;70281;-39
2023/01/31 09:10:36;;;;;;;;;;;;;;;32.36;55.21;100650.78;5085270;27;65735;-39
2023/01/31 09:13:10;;;;;;;;;;;;;;;32.38;55.12;100647.84;5087493;27;70594;-38
2023/01/31 09:15:43;;;;;;;;;;;;;;;32.40;54.98;100646.56;5074093;27;65351;-41
2023/01/31 09:18:17;;;;;;;;;;;;;;;32.23;55.09;100645.56;5088404;27;69076;-40
2023/01/31 09:20:51;;;;;;;;;;;;;;;31.98;55.48;100660.19;5092066;27;65426;-39
2023/01/31 09:23:22;;;;;;;;;;;;;;;31.85;55.99;100654.94;5098765;27;70129;-39
2023/01/31 09:25:55;;;;;;;;;;;;;;;31.78;56.16;100651.50;5094558;27;66559;-39
2023/01/31 09:28:26;;;;;;;;;;;;;;;31.72;56.40;100655.97;5093237;27;69733;-39
2023/01/31 09:31:08;;;;;;;;;;;;;;;31.66;56.77;100667.75;5093013;27;66094;-39
2023/01/31 09:33:41;;;;;;;;;;;;;;;31.59;56.92;100662.44;5094135;27;70395;-40
2023/01/31 09:36:16;;;;;;;;;;;;;;;31.59;57.02;100662.44;5082725;27;66273;-39
2023/01/31 09:38:47;;;;;;;;;;;;;;;31.57;56.62;100659.13;5092859;27;70985;-40
2023/01/31 09:41:31;;;;;;;;;;;;;;;31.53;57.14;100663.31;5094640;27;67072;-38
2023/01/31 09:44:05;;;;;;;;;;;;;;;31.47;57.32;100664.25;5084944;27;70319;-39
2023/01/31 09:46:37;;;;;;;;;;;;;;;31.48;57.21;100665.91;5070720;27;65994;-39
2023/01/31 09:49:14;;;;;;;;;;;;;;;31.44;57.48;100670.13;5092372;27;70378;-40
2023/01/31 09:51:54;;;;;;;;;;;;;;;31.51;57.16;100676.31;5091325;27;66724;-40
2023/01/31 09:54:29;;;;;;;;;;;;;;;31.56;57.50;100679.13;5074407;27;69803;-41
2023/01/31 09:57:12;;;;;;;;;;;;;;;31.55;57.70;100682.91;5098563;27;65589;-40
2023/01/31 10:00:01;;;;;;;;;;;;;;;31.52;57.42;100682.53;5101845;27;70334;-40
2023/01/31 10:02:36;;;;;;;;;;;;;;;31.48;57.34;100687.59;5089591;27;65630;-39
2023/01/31 10:05:09;;;;;;;;;;;;;;;31.43;57.88;100689.34;5086070;27;68877;-40
2023/01/31 10:08:00;;;;;;;;;;;;;;;31.41;57.70;100686.84;5097600;27;66097;-40
2023/01/31 10:10:36;;;;;;;;;;;;;;;31.43;57.79;100689.34;5068501;27;70426;-40
2023/01/31 10:13:21;;;;;;;;;;;;;;;31.41;58.19;100692.28;5100610;27;66671;-40
2023/01/31 10:15:55;;;;;;;;;;;;;;;31.38;57.98;100698.16;5097394;27;69717;-40
2023/01/31 10:18:29;;;;;;;;;;;;;;;31.35;58.58;100695.88;5096291;27;66708;-39
2023/01/31 10:21:26;;;;;;;;;;;;;;;31.34;58.89;100699.63;5096064;27;70518;-39
2023/01/31 10:24:05;;;;;;;;;;;;;;;31.34;59.43;100697.75;5064681;27;66566;-41
2023/01/31 10:26:37;;;;;;;;;;;;;;;31.37;59.60;100705.47;5078712;27;70792;-41
2023/01/31 10:29:17;;;;;;;;;;;;;;;31.36;59.95;100709.22;5073923;27;65470;-40
2023/01/31 10:31:53;;;;;;;;;;;;;;;31.39;59.89;100716.88;5094221;27;70281;-39
2023/01/31 10:34:26;;;;;;;;;;;;;;;31.43;60.53;100721.88;5095598;27;66357;-39
2023/01/31 10:37:11;;;;;;;;;;;;;;;31.41;60.46;100719.38;5094204;27;69220;-39
2023/01/31 10:39:45;;;;;;;;;;;;;;;31.39;60.21;100726.91;5096482;27;65335;-39
2023/01/31 10:42:22;;;;;;;;;;;;;;;31.39;60.31;100726.91;5092078;27;70528;-40
2023/01/31 10:44:58;;;;;;;;;;;;;;;31.35;59.49;100736.53;5094855;27;67041;-39
2023/01/31 10:47:34;;;;;;;;;;;;;;;31.32;60.82;100731.56;5055331;27;70316;-40
2023/01/31 10:50:13;;;;;;;;;;;;;;;31.34;60.66;100733.00;5092624;27;66077;-39
2023/01/31 10:52:47;;;;;;;;;;;;;;;31.30;60.67;100733.66;5090353;27;70109;-40
2023/01/31 10:55:34;;;;;;;;;;;;;;;31.14;60.54;100714.25;5093283;27;66554;-39
2023/01/31 10:58:11;;;;;;;;;;;;;;;31.27;60.58;100744.97;5094599;27;70585;-38
2023/01/31 11:00:42;;;;;;;;;;;;;;;31.26;61.05;100754.13;5094084;27;66682;-39
2023/01/31 11:03:13;;;;;;;;;;;;;;;31.42;60.67;100748.13;5094411;27;70648;-39
2023/01/31 11:05:47;;;;;;;;;;;;;;;31.57;60.68;100750.47;5078301;27;65298;-40
2023/01/31 11:08:25;;;;;;;;;;;;;;;31.71;60.86;100770.94;5093077;27;69455;-40
2023/01/31 11:10:56;;;;;;;;;;;;;;;31.79;60.47;100775.22;5094697;27;65993;-39
2023/01/31 11:13:27;;;;;;;;;;;;;;;31.85;60.27;100784.31;5079188;27;69245;-39
2023/01/31 11:15:58;;;;;;;;;;;;;;;31.88;60.34;100786.56;5062724;28;66178;-41
2023/01/31 11:18:37;;;;;;;;;;;;;;;31.91;60.14;100788.81;5082963;27;68681;-39
2023/01/31 11:21:08;;;;;;;;;;;;;;;31.92;60.10;100795.94;5099630;27;66650;-40
2023/01/31 11:23:39;;;;;;;;;;;;;;;31.92;59.92;100802.19;5086779;27;70070;-40
2023/01/31 11:26:11;;;;;;;;;;;;;;;31.94;59.83;100804.66;5094558;27;66338;-39
2023/01/31 11:28:49;;;;;;;;;;;;;;;31.94;60.18;100810.91;5094543;27;70090;-39
2023/01/31 11:31:23;;;;;;;;;;;;;;;31.94;60.06;100816.34;5074239;27;65605;-40
2023/01/31 11:34:01;;;;;;;;;;;;;;;31.93;59.91;100816.56;5094791;27;70769;-40
2023/01/31 11:36:49;;;;;;;;;;;;;;;31.92;60.00;100815.75;5094054;27;66060;-38
2023/01/31 11:39:25;;;;;;;;;;;;;;;31.90;60.01;100820.56;5090197;27;69522;-41
2023/01/31 11:41:56;;;;;;;;;;;;;;;31.89;59.78;100835.16;5094786;27;66646;-40
2023/01/31 11:44:27;;;;;;;;;;;;;;;31.88;59.90;100833.50;5094218;27;69207;-40
2023/01/31 11:47:01;;;;;;;;;;;;;;;31.82;59.20;100837.16;5091541;27;65498;-40
2023/01/31 11:49:32;;;;;;;;;;;;;;;31.79;59.27;100840.31;5087312;27;70241;-41
2023/01/31 11:52:12;;;;;;;;;;;;;;;31.77;59.16;100847.84;5097025;27;66500;-38
2023/01/31 11:54:45;;;;;;;;;;;;;;;31.75;59.17;100845.34;5076076;27;70366;-39
2023/01/31 11:57:22;;;;;;;;;;;;;;;31.73;59.18;100849.34;5092244;27;66055;-39
2023/01/31 11:59:54;;;;;;;;;;;;;;;31.70;59.37;100852.50;5094334;27;69887;-41
2023/01/31 12:02:28;;;;;;;;;;;;;;;31.70;59.21;100857.94;5074067;27;66024;-40
2023/01/31 12:05:01;;;;;;;;;;;;;;;31.72;59.47;100855.81;5097091;27;70312;-39
2023/01/31 12:07:40;;;;;;;;;;;;;;;31.70;59.55;100864.16;5099061;27;65930;-39
2023/01/31 12:10:31;;;;;;;;;;;;;;;31.65;59.94;100865.91;5089873;27;69376;-37
2023/01/31 12:13:10;;;;;;;;;;;;;;;31.67;59.94;100871.94;5085689;27;66014;-39
2023/01/31 12:15:54;;;;;;;;;;;;;;;31.45;60.20;100880.50;5092061;27;69809;-39
2023/01/31 12:18:47;;;;;;;;;;;;;;;31.29;61.00;100879.19;5085117;27;67064;-42
2023/01/31 12:21:28;;;;;;;;;;;;;;;31.23;61.63;100879.25;5074591;27;68966;-41
2023/01/31 12:24:14;;;;;;;;;;;;;;;31.12;61.88;100887.06;5097978;27;65807;-40
2023/01/31 12:26:45;;;;;;;;;;;;;;;31.06;61.92;100887.94;5096026;27;70430;-40
2023/01/31 12:29:24;;;;;;;;;;;;;;;31.02;62.71;100892.16;5092002;27;66691;-38
2023/01/31 12:32:17;;;;;;;;;;;;;;;31.02;62.90;100902.16;5095038;27;70189;-40
2023/01/31 12:35:03;;;;;;;;;;;;;;;30.99;63.19;100898.00;5067948;27;65424;-40
2023/01/31 12:37:51;;;;;;;;;;;;;;;30.97;63.23;100896.56;5093604;27;69788;-39
2023/01/31 12:40:32;;;;;;;;;;;;;;;30.96;63.20;100895.75;5094313;27;66174;-41
2023/01/31 12:43:04;;;;;;;;;;;;;;;30.96;63.85;100898.44;5090951;27;70677;-39
2023/01/31 12:45:37;;;;;;;;;;;;;;;30.95;63.55;100904.91;5096079;27;66723;-40
2023/01/31 12:48:21;;;;;;;;;;;;;;;30.94;63.37;100914.09;5096839;27;71145;-40
2023/01/31 12:51:00;;;;;;;;;;;;;;;30.91;63.42;100907.22;5086647;27;66945;-40
2023/01/31 12:53:43;;;;;;;;;;;;;;;30.89;63.63;100911.19;5067951;27;69835;-39
2023/01/31 12:56:22;;;;;;;;;;;;;;;30.85;63.98;100913.53;5093987;27;65612;-39
2023/01/31 12:58:53;;;;;;;;;;;;;;;30.85;64.63;100910.81;5072316;27;69855;-39
2023/01/31 13:02:12;;;;;;;;;;;;;;;30.84;65.44;100919.16;5092177;27;65993;-38
2023/01/31 13:04:56;;;;;;;;;;;;;;;30.84;64.97;100916.44;5059245;27;70508;-39
2023/01/31 13:07:26;;;;;;;;;;;;;;;30.81;65.13;100923.13;5092469;27;66021;-37
2023/01/31 13:10:00;;;;;;;;;;;;;;;30.80;64.68;100921.47;5088922;27;70945;-40
2023/01/31 13:12:33;;;;;;;;;;;;;;;30.78;64.39;100925.41;5086296;27;66545;-37
2023/01/31 13:15:06;;;;;;;;;;;;;;;30.76;64.47;100924.78;5087111;27;70403;-38
2023/01/31 13:17:38;;;;;;;;;;;;;;;30.75;64.16;100925.84;5091780;27;66274;-38